| time (UTC) | temp F | wind direction | speed knots | gust knots | rain 1hr in | rain 24hr in | rain mn in | humidity % | barometer mb |
| 20260507220829 | 66 | 257 | 3.5 | 9.6 | 0.00 | 0.00 | 0.00 | 44 | 1009.4 |
| 20260507215229 | 66 | 255 | 3.5 | 6.1 | 0.00 | 0.00 | 0.00 | 42 | 1009.4 |
| 20260507213630 | 67 | 255 | 3.5 | 9.6 | 0.00 | 0.00 | 0.00 | 44 | 1009.4 |
| 20260507212829 | 67 | 260 | 2.6 | 9.6 | 0.00 | 0.00 | 0.00 | 43 | 1009.4 |
| 20260507212029 | 66 | 253 | 3.5 | 7.8 | 0.00 | 0.00 | 0.00 | 44 | 1009.4 |
| 20260507211229 | 67 | 256 | 5.2 | 9.6 | 0.00 | 0.00 | 0.00 | 43 | 1009.5 |
| 20260507210429 | 67 | 268 | 6.1 | 15.6 | 0.00 | 0.00 | 0.00 | 43 | 1009.6 |
| 20260507210029 | 66 | 269 | 5.2 | 15.6 | 0.00 | 0.00 | 0.00 | 43 | 1009.5 |
| 20260507205630 | 66 | 262 | 4.3 | 13.9 | 0.00 | 0.00 | 0.00 | 42 | 1009.5 |
| 20260507205230 | 66 | 259 | 5.2 | 9.6 | 0.00 | 0.00 | 0.00 | 41 | 1009.6 |
| 20260507204429 | 66 | 275 | 6.1 | 9.6 | 0.00 | 0.00 | 0.00 | 41 | 1009.6 |
| 20260507204229 | 66 | 283 | 6.1 | 10.4 | 0.00 | 0.00 | 0.00 | 42 | 1009.7 |
| 20260507204029 | 66 | 292 | 6.1 | 10.4 | 0.00 | 0.00 | 0.00 | 41 | 1009.6 |
| 20260507203929 | 66 | 291 | 6.1 | 10.4 | 0.00 | 0.00 | 0.00 | 41 | 1009.6 |
| 20260507203831 | 66 | 289 | 6.1 | 10.4 | 0.00 | 0.00 | 0.00 | 41 | 1009.5 |
| 20260507203729 | 66 | 270 | 5.2 | 13.0 | 0.00 | 0.00 | 0.00 | 41 | 1009.6 |
| 20260507201951 | 66 | 262 | 3.5 | 7.8 | 0.00 | 0.00 | 0.00 | 43 | 1010.0 |
| 20260507200311 | 66 | 256 | 5.2 | 10.4 | 0.00 | 0.00 | 0.00 | 40 | 1010.2 |
| 20260507194631 | 66 | 253 | 5.2 | 10.4 | 0.00 | 0.00 | 0.00 | 42 | 1010.3 |
| 20260507192951 | 66 | 263 | 5.2 | 13.0 | 0.00 | 0.00 | 0.00 | 41 | 1010.5 |
| 20260507191311 | 66 | 257 | 5.2 | 10.4 | 0.00 | 0.00 | 0.00 | 42 | 1010.7 |
| 20260507185631 | 66 | 261 | 5.2 | 12.2 | 0.00 | 0.00 | 0.00 | 42 | 1010.8 |
| 20260507183951 | 64 | 260 | 4.3 | 7.8 | 0.00 | 0.00 | 0.00 | 45 | 1010.9 |
| 20260507182312 | 64 | 269 | 7.8 | 13.9 | 0.00 | 0.00 | 0.00 | 46 | 1011.1 |
| 20260507180632 | 64 | 269 | 7.0 | 15.6 | 0.00 | 0.00 | 0.00 | 46 | 1011.4 |
| 20260507174951 | 63 | 265 | 5.2 | 11.3 | 0.00 | 0.00 | 0.00 | 48 | 1011.5 |
| 20260507173311 | 63 | 264 | 6.1 | 13.9 | 0.00 | 0.00 | 0.00 | 46 | 1011.9 |
| 20260507171631 | 62 | 274 | 6.1 | 13.9 | 0.00 | 0.00 | 0.00 | 49 | 1012.1 |
| 20260507165951 | 62 | 271 | 6.1 | 14.8 | 0.00 | 0.00 | 0.00 | 50 | 1012.3 |
| 20260507164311 | 61 | 267 | 7.0 | 12.2 | 0.00 | 0.00 | 0.00 | 53 | 1012.5 |
| 20260507162631 | 61 | 270 | 6.1 | 14.8 | 0.00 | 0.00 | 0.00 | 50 | 1012.7 |
| 20260507160951 | 61 | 271 | 6.1 | 11.3 | 0.00 | 0.00 | 0.00 | 56 | 1012.8 |
| 20260507155312 | 60 | 268 | 6.1 | 11.3 | 0.00 | 0.00 | 0.00 | 56 | 1012.8 |
| 20260507153631 | 60 | 261 | 5.2 | 11.3 | 0.00 | 0.00 | 0.00 | 56 | 1012.9 |
| 20260507151951 | 59 | 268 | 5.2 | 14.8 | 0.00 | 0.00 | 0.00 | 58 | 1013.0 |
| 20260507150311 | 58 | 267 | 4.3 | 13.9 | 0.00 | 0.00 | 0.00 | 58 | 1013.0 |
| 20260507144631 | 57 | 267 | 4.3 | 10.4 | 0.00 | 0.00 | 0.00 | 62 | 1013.1 |
| 20260507142951 | 56 | 259 | 3.5 | 7.8 | 0.00 | 0.00 | 0.00 | 63 | 1013.3 |
| 20260507141311 | 54 | 258 | 3.5 | 7.0 | 0.00 | 0.00 | 0.00 | 62 | 1013.6 |
| 20260507135631 | 53 | 265 | 2.6 | 8.7 | 0.00 | 0.00 | 0.00 | 62 | 1013.6 |
| 20260507132310 | 51 | 264 | 2.6 | 6.1 | 0.00 | 0.00 | 0.00 | 64 | 1013.8 |
| 20260507130630 | 50 | 264 | 1.7 | 6.1 | 0.00 | 0.00 | 0.00 | 64 | 1013.8 |
| 20260507124951 | 50 | 254 | 1.7 | 3.5 | 0.00 | 0.00 | 0.00 | 63 | 1013.8 |
| 20260507123311 | 48 | 256 | 0.9 | 5.2 | 0.00 | 0.00 | 0.00 | 64 | 1013.8 |
| 20260507121631 | 47 | 248 | 0.9 | 4.3 | 0.00 | 0.00 | 0.00 | 65 | 1013.7 |
| 20260507115950 | 46 | 247 | 0.9 | 4.3 | 0.00 | 0.00 | 0.00 | 67 | 1013.5 |
| 20260507114312 | 43 | 241 | 0.9 | 5.2 | 0.00 | 0.00 | 0.00 | 70 | 1013.3 |
| 20260507112631 | 41 | 239 | 0.0 | 2.6 | 0.00 | 0.00 | 0.00 | 74 | 1013.5 |
| 20260507110951 | 40 | 245 | 0.0 | 2.6 | 0.00 | 0.00 | 0.00 | 77 | 1013.5 |
| 20260507105310 | 39 | 244 | 0.0 | 1.7 | 0.00 | 0.00 | 0.00 | 79 | 1013.7 |
| 20260507103630 | 39 | 251 | 0.0 | 0.9 | 0.00 | 0.00 | 0.00 | 80 | 1013.9 |
| 20260507101952 | 37 | 231 | 0.0 | 1.7 | 0.00 | 0.00 | 0.00 | 87 | 1014.0 |
| 20260507100311 | 36 | 246 | 0.0 | 0.9 | 0.00 | 0.00 | 0.00 | 91 | 1014.1 |
| 20260507094632 | 35 | 0 | 0.0 | 0.0 | 0.00 | 0.00 | 0.00 | 90 | 1014.1 |
| 20260507092950 | 35 | 0 | 0.0 | 0.0 | 0.00 | 0.00 | 0.00 | 90 | 1014.2 |
| 20260507091311 | 35 | 0 | 0.0 | 0.0 | 0.00 | 0.00 | 0.00 | 91 | 1014.3 |
| 20260507085631 | 35 | 0 | 0.0 | 0.0 | 0.00 | 0.00 | 0.00 | 91 | 1014.3 |
| 20260507083950 | 35 | 0 | 0.0 | 0.0 | 0.00 | 0.00 | 0.00 | 90 | 1014.5 |
| 20260507082310 | 35 | 0 | 0.0 | 0.0 | 0.00 | 0.00 | 0.00 | 89 | 1014.6 |
| 20260507080630 | 36 | 0 | 0.0 | 0.0 | 0.00 | 0.00 | 0.00 | 89 | 1014.5 |
| 20260507073310 | 38 | 0 | 0.0 | 0.0 | 0.00 | 0.00 | 0.00 | 88 | 1014.8 |
| 20260507071630 | 38 | 0 | 0.0 | 0.0 | 0.00 | 0.00 | 0.00 | 87 | 1014.9 |
| 20260507065950 | 39 | 0 | 0.0 | 0.0 | 0.00 | 0.00 | 0.00 | 86 | 1015.1 |
| 20260507064310 | 40 | 0 | 0.0 | 0.0 | 0.00 | 0.00 | 0.00 | 86 | 1015.2 |
| 20260507062630 | 40 | 0 | 0.0 | 0.0 | 0.00 | 0.00 | 0.00 | 87 | 1015.3 |
| 20260507060950 | 40 | 0 | 0.0 | 0.0 | 0.00 | 0.00 | 0.00 | 89 | 1015.4 |
| 20260507055310 | 39 | 0 | 0.0 | 0.0 | 0.00 | 0.00 | 0.00 | 88 | 1015.6 |
| 20260507053631 | 39 | 0 | 0.0 | 0.0 | 0.00 | 0.00 | 0.00 | 88 | 1015.7 |
| 20260507051950 | 39 | 0 | 0.0 | 0.0 | 0.00 | 0.00 | 0.00 | 88 | 1015.6 |
| 20260507050310 | 38 | 0 | 0.0 | 0.0 | 0.00 | 0.00 | 0.00 | 88 | 1015.7 |
| 20260507044632 | 38 | 0 | 0.0 | 0.0 | 0.00 | 0.00 | 0.00 | 88 | 1015.6 |
| 20260507042950 | 37 | 0 | 0.0 | 0.0 | 0.00 | 0.00 | 0.00 | 86 | 1015.7 |
| 20260507041310 | 38 | 0 | 0.0 | 0.0 | 0.00 | 0.00 | 0.00 | 85 | 1015.6 |
| 20260507035631 | 38 | 0 | 0.0 | 0.0 | 0.00 | 0.00 | 0.00 | 85 | 1015.7 |
| 20260507033950 | 39 | 0 | 0.0 | 0.0 | 0.00 | 0.00 | 0.00 | 82 | 1015.7 |
| 20260507032310 | 39 | 0 | 0.0 | 0.0 | 0.00 | 0.00 | 0.00 | 82 | 1015.8 |
| 20260507030630 | 39 | 0 | 0.0 | 0.0 | 0.00 | 0.00 | 0.00 | 79 | 1015.7 |
| 20260507024950 | 41 | 0 | 0.0 | 0.0 | 0.00 | 0.00 | 0.00 | 79 | 1015.8 |
| 20260507023310 | 42 | 0 | 0.0 | 0.0 | 0.00 | 0.00 | 0.00 | 75 | 1015.6 |
| 20260507021630 | 43 | 0 | 0.0 | 0.0 | 0.00 | 0.00 | 0.00 | 71 | 1015.4 |
| 20260507015950 | 45 | 0 | 0.0 | 0.0 | 0.00 | 0.00 | 0.00 | 67 | 1015.3 |
| 20260507014311 | 47 | 280 | 0.0 | 2.6 | 0.00 | 0.00 | 0.00 | 54 | 1015.1 |
| 20260507012630 | 49 | 0 | 0.0 | 0.0 | 0.00 | 0.00 | 0.00 | 48 | 1015.0 |
| 20260507010950 | 52 | 303 | 0.0 | 0.9 | 0.00 | 0.00 | 0.00 | 44 | 1015.0 |
| 20260507005310 | 54 | 304 | 1.7 | 2.6 | 0.00 | 0.00 | 0.00 | 40 | 1015.1 |
| 20260507003630 | 54 | 305 | 2.6 | 3.5 | 0.00 | 0.00 | 0.00 | 39 | 1014.9 |
| 20260507001950 | 54 | 306 | 3.5 | 7.0 | 0.00 | 0.00 | 0.00 | 39 | 1014.9 |
| 20260507000310 | 55 | 308 | 1.7 | 6.1 | 0.00 | 0.00 | 0.00 | 42 | 1014.8 |
| 20260506234630 | 55 | 305 | 4.3 | 6.1 | 0.00 | 0.00 | 0.00 | 42 | 1014.9 |
| 20260506232951 | 56 | 302 | 6.1 | 10.4 | 0.00 | 0.00 | 0.00 | 41 | 1015.1 |
| 20260506231310 | 56 | 309 | 5.2 | 8.7 | 0.00 | 0.00 | 0.00 | 36 | 1015.2 |
| 20260506225630 | 56 | 292 | 4.3 | 8.7 | 0.00 | 0.00 | 0.00 | 40 | 1015.2 |
| 20260506223950 | 56 | 306 | 5.2 | 10.4 | 0.00 | 0.00 | 0.00 | 38 | 1015.2 |
| 20260506222310 | 56 | 290 | 5.2 | 8.7 | 0.00 | 0.00 | 0.00 | 39 | 1015.2 |